Inspiration — C6FM5 — position and weather

sailwx.info

Track history (hours):
 
Tides and Currents Weather Stations Pressure Air Temp Water Temp Dewpoint Dewpoint Depression Visibility Wind Speed Wind Dir Waves Ship Positions

Inspiration

Operator: Carnival Cruise Lines

Last reported at 2017-Oct-22 07:22 UTC. Time now 2017-Oct-22 07:59 UTC.
Position N 31°45' W 117°50'.

Type: Ship. MMSI: 309484000.

Date/timePositionNaut miles runAvg speedWind from/ knotsBaromVisibWave heightAir tempDewpointWater temp
2017-Oct-22 07:22N 31°45' W 117°50'410.0
2017-Oct-22 06:59N 31°46' W 117°46'510.1
2017-Oct-22 06:30N 31°46' W 117°40'1410.5
2017-Oct-22 05:12N 31°49' W 117°24'1711.0
2017-Oct-22 03:41N 31°51' W 117°05'42 2.2
2017-Oct-21 08:50N 32°21' W 117°39'411.1
2017-Oct-21 08:30N 32°25' W 117°40'612.2
2017-Oct-21 08:00N 32°30' W 117°43'611.7
2017-Oct-21 07:31N 32°36' W 117°45'611.1
2017-Oct-21 07:00N 32°41' W 117°48'611.4
2017-Oct-21 06:30N 32°46' W 117°50'1211.6
2017-Oct-21 05:30N 32°57' W 117°56'3511.8
2017-Oct-21 02:35N 33°29' W 118°10'111.7
2017-Oct-21 02:30N 33°30' W 118°11'611.6
2017-Oct-21 02:00N 33°35' W 118°13'4 0.3
2017-Oct-20 11:35N 33°39' W 118°11'1 7.2
2017-Oct-20 11:30N 33°39' W 118°10'21 7.6
2017-Oct-20 08:45N 33°19' W 118°03'2 8.5
2017-Oct-20 08:30N 33°17' W 118°02'4 8.5
2017-Oct-20 08:00N 33°13' W 117°60'4 8.0
2017-Oct-20 07:30N 33°09' W 117°58'4 8.1
2017-Oct-20 07:00N 33°05' W 117°57'4 8.8
2017-Oct-20 06:30N 33°01' W 117°55'4 8.8
2017-Oct-20 06:00N 32°57' W 117°53'4 8.8
2017-Oct-20 05:30N 32°53' W 117°51'4 8.6
2017-Oct-20 05:00N 32°49' W 117°49'4 8.2
2017-Oct-20 04:30N 32°45' W 117°48'4 8.5
2017-Oct-20 04:00N 32°41' W 117°46'4 8.5
2017-Oct-20 03:30N 32°37' W 117°44'4 8.5
2017-Oct-20 03:00N 32°33' W 117°43'4 8.2
2017-Oct-20 02:30N 32°29' W 117°41'4 8.1
2017-Oct-20 02:00N 32°25' W 117°40'4 7.9
2017-Oct-20 01:30N 32°22' W 117°38'5 7.7
2017-Oct-20 00:52N 32°17' W 117°36'3 8.0
2017-Oct-20 00:30N 32°15' W 117°33'11 8.9
2017-Oct-19 23:16N 32°07' W 117°25'2 8.9
2017-Oct-19 23:00N 32°05' W 117°23'5 8.9
2017-Oct-19 22:27N 32°01' W 117°19'6 9.2
2017-Oct-19 21:51N 31°56' W 117°17'3 8.2
2017-Oct-19 21:30N 31°53' W 117°17'4 8.0
2017-Oct-19 21:00N 31°52' W 117°21'6 9.2
2017-Oct-19 20:24N 31°52' W 117°28'5 9.4
2017-Oct-19 19:51N 31°52' W 117°34'5 9.4
2017-Oct-19 19:18N 31°52' W 117°40'3 9.3
2017-Oct-19 19:00N 31°52' W 117°43'5 9.3
2017-Oct-19 18:30N 31°52' W 117°49'5 9.1
2017-Oct-19 17:59N 31°52' W 117°54'4 9.5
2017-Oct-19 17:30N 31°51' W 117°60'612.0
2017-Oct-19 17:00N 31°47' W 118°05'713.6
2017-Oct-19 16:30N 31°41' W 118°07'611.9
2017-Oct-19 16:00N 31°35' W 118°08'612.2
2017-Oct-19 15:30N 31°34' W 118°01'4 7.5
2017-Oct-19 14:59N 31°34' W 117°56'4 7.3
2017-Oct-19 14:30N 31°34' W 117°52'2 3.4
2017-Oct-19 14:00N 31°33' W 117°51'4 8.6
2017-Oct-19 13:30N 31°33' W 117°56'4 8.3
2017-Oct-19 13:00N 31°33' W 118°01'4 8.3
2017-Oct-19 12:31N 31°33' W 118°06'2 3.7
2017-Oct-19 12:00N 31°32' W 118°07'4 7.3
2017-Oct-19 11:30N 31°31' W 118°02'4 7.4
2017-Oct-19 11:00N 31°31' W 117°58'4 7.3
2017-Oct-19 10:30N 31°31' W 117°54'3 6.9
2017-Oct-19 10:00N 31°32' W 117°50'3 6.9
2017-Oct-19 09:30N 31°35' W 117°50'4 7.4
2017-Oct-19 09:00N 31°38' W 117°53'4 7.5
2017-Oct-19 08:30N 31°41' W 117°55'4 7.6
2017-Oct-19 08:00N 31°45' W 117°53'4 9.0
2017-Oct-19 07:30N 31°45' W 117°48'4 8.8
2017-Oct-19 07:00N 31°46' W 117°43'510.0
2017-Oct-19 06:30N 31°46' W 117°37'510.1
2017-Oct-19 06:00N 31°47' W 117°31'510.5
2017-Oct-19 05:30N 31°47' W 117°25'510.1
2017-Oct-19 05:00N 31°48' W 117°19'510.4
2017-Oct-19 04:29N 31°48' W 117°13'5 9.7
2017-Oct-19 03:58N 31°49' W 117°07'5 9.6
2017-Oct-19 03:30N 31°49' W 117°02'5 9.6
2017-Oct-19 02:59N 31°50' W 116°56'5 9.8
2017-Oct-19 02:30N 31°50' W 116°50'5 9.6
2017-Oct-19 01:59N 31°50' W 116°44'4 9.3
2017-Oct-19 01:30N 31°50' W 116°39'0 0.0
2017-Oct-18 13:50N 31°50' W 116°39'3 7.8
2017-Oct-18 13:30N 31°50' W 116°42'3 6.8
2017-Oct-18 13:00N 31°51' W 116°45'4 8.3
2017-Oct-18 12:30N 31°54' W 116°49'4 8.6
2017-Oct-18 11:59N 31°55' W 116°54'4 8.5
2017-Oct-18 11:30N 31°57' W 116°59'4 8.5
2017-Oct-18 11:00N 31°59' W 117°03'4 8.6
2017-Oct-18 10:30N 32°00' W 117°08'4 8.4
2017-Oct-18 10:00N 32°02' W 117°12'4 8.0
2017-Oct-18 09:30N 32°03' W 117°17'4 7.3
2017-Oct-18 09:00N 32°05' W 117°21'4 8.2
2017-Oct-18 08:30N 32°06' W 117°25'5 9.8
2017-Oct-18 08:00N 32°09' W 117°30'4 8.8
2017-Oct-18 07:30N 32°12' W 117°34'4 8.7
2017-Oct-18 07:00N 32°16' W 117°36'4 8.4
2017-Oct-18 06:30N 32°19' W 117°39'5 9.6
2017-Oct-18 06:00N 32°24' W 117°41'5 9.9
2017-Oct-18 05:30N 32°28' W 117°44'510.0
2017-Oct-18 05:00N 32°32' W 117°47'510.0
2017-Oct-18 04:30N 32°37' W 117°50'510.1
2017-Oct-18 04:00N 32°41' W 117°52'510.4
2017-Oct-18 03:30N 32°46' W 117°55'510.6
2017-Oct-18 03:00N 32°51' W 117°58'510.7
2017-Oct-18 02:30N 32°55' W 118°01'510.9
2017-Oct-18 02:00N 33°00' W 118°04'611.0
2017-Oct-18 01:30N 33°05' W 118°07'510.8
2017-Oct-18 01:00N 33°10' W 118°10'510.9
2017-Oct-18 00:30N 33°15' W 118°13'510.7
2017-Oct-18 00:00N 33°19' W 118°16'3 5.3
2017-Oct-17 23:28N 33°21' W 118°19'0 0.0
2017-Oct-17 22:58N 33°21' W 118°19'0 0.0
2017-Oct-17 22:30N 33°21' W 118°19'0 0.0
2017-Oct-17 22:00N 33°21' W 118°19'0 0.0
2017-Oct-17 21:27N 33°21' W 118°19'0 0.1
2017-Oct-17 21:00N 33°21' W 118°19'0 0.1
2017-Oct-17 20:30N 33°21' W 118°19'0 0.0
2017-Oct-17 19:56N 33°21' W 118°19'0 0.0
2017-Oct-17 19:29N 33°21' W 118°19'0 0.0
2017-Oct-17 18:56N 33°21' W 118°19'0 0.0
2017-Oct-17 18:26N 33°21' W 118°19'0 0.0
2017-Oct-17 17:49N 33°21' W 118°19'0 0.0
2017-Oct-17 17:28N 33°21' W 118°19'0 0.0
2017-Oct-17 16:55N 33°21' W 118°19'0 0.0
2017-Oct-17 16:25N 33°21' W 118°19'0 0.0
2017-Oct-17 15:55N 33°21' W 118°19'0 0.0
2017-Oct-17 15:30N 33°21' W 118°19'0 0.0
2017-Oct-17 15:00N 33°21' W 118°19'0 0.0
2017-Oct-17 14:30N 33°21' W 118°19'0 0.5
2017-Oct-17 14:00N 33°21' W 118°19'3 6.1
2017-Oct-17 13:31N 33°18' W 118°17'4 7.6
2017-Oct-17 13:00N 33°15' W 118°16'4 8.5
2017-Oct-17 12:30N 33°10' W 118°16'4 8.6
2017-Oct-17 12:00N 33°06' W 118°15'4 8.3
2017-Oct-17 11:30N 33°03' W 118°12'4 7.7
2017-Oct-17 11:00N 32°60' W 118°09'4 7.6
2017-Oct-17 10:30N 32°56' W 118°07'4 7.2
2017-Oct-17 10:00N 32°54' W 118°04'4 7.3
2017-Oct-17 09:30N 32°51' W 118°02'4 7.4
2017-Oct-17 09:00N 32°48' W 117°59'3 6.8
2017-Oct-17 08:30N 32°48' W 117°55'3 6.7
2017-Oct-17 08:00N 32°51' W 117°55'4 7.6
2017-Oct-17 07:30N 32°55' W 117°56'4 7.5
2017-Oct-17 07:00N 32°58' W 117°58'3 6.9
2017-Oct-17 06:30N 33°02' W 117°59'4 7.1
2017-Oct-17 06:00N 33°05' W 118°00'4 7.2
2017-Oct-17 05:30N 33°08' W 118°02'4 7.1
2017-Oct-17 05:00N 33°12' W 118°03'4 8.9
2017-Oct-17 04:30N 33°16' W 118°05'510.6
2017-Oct-17 04:00N 33°21' W 118°07'510.8
2017-Oct-17 03:30N 33°26' W 118°09'510.8
2017-Oct-17 03:00N 33°31' W 118°11'510.7
2017-Oct-17 02:30N 33°36' W 118°13'510.0
2017-Oct-17 02:00N 33°41' W 118°12'4 0.3
2017-Oct-16 12:31N 33°45' W 118°11'0 1.1
2017-Oct-16 12:30N 33°45' W 118°11'6 5.7
2017-Oct-16 11:28N 33°39' W 118°10'4 7.6
2017-Oct-16 11:00N 33°36' W 118°10'4 7.4
2017-Oct-16 10:27N 33°32' W 118°08'4 7.4
2017-Oct-16 09:52N 33°28' W 118°06'3 7.5
2017-Oct-16 09:30N 33°25' W 118°05'4 7.2
2017-Oct-16 09:00N 33°22' W 118°04'4 7.6
2017-Oct-16 08:27N 33°18' W 118°02'3 7.4
2017-Oct-16 08:00N 33°15' W 118°01'4 7.1
2017-Oct-16 07:30N 33°11' W 117°59'4 7.5
2017-Oct-16 07:00N 33°08' W 117°58'4 7.5
2017-Oct-16 06:30N 33°04' W 117°56'4 7.7
2017-Oct-16 06:00N 33°01' W 117°55'4 7.4
2017-Oct-16 05:30N 32°57' W 117°53'4 7.4
2017-Oct-16 05:00N 32°54' W 117°51'4 7.4
2017-Oct-16 04:30N 32°50' W 117°50'4 7.5
2017-Oct-16 04:00N 32°47' W 117°49'4 7.6
2017-Oct-16 03:30N 32°43' W 117°47'4 7.7
2017-Oct-16 03:00N 32°40' W 117°45'4 7.7
2017-Oct-16 02:30N 32°36' W 117°43'4 7.8
2017-Oct-16 02:00N 32°33' W 117°41'4 7.8
2017-Oct-16 01:30N 32°29' W 117°40'4 7.6
2017-Oct-16 01:00N 32°25' W 117°38'4 7.6
2017-Oct-16 00:30N 32°22' W 117°38'4 7.5
2017-Oct-16 00:00N 32°18' W 117°37'4 7.3
2017-Oct-15 23:30N 32°15' W 117°34'4 7.2
2017-Oct-15 23:00N 32°13' W 117°31'16 7.3
2017-Oct-15 20:52N 32°01' W 117°18'3 7.2
2017-Oct-15 20:30N 31°59' W 117°17'4 7.0
2017-Oct-15 19:55N 31°55' W 117°15'3 6.8
2017-Oct-15 19:30N 31°52' W 117°15'3 6.9
2017-Oct-15 19:00N 31°52' W 117°19'4 7.1
2017-Oct-15 18:27N 31°52' W 117°24'3 7.3
2017-Oct-15 18:00N 31°52' W 117°27'4 7.1
2017-Oct-15 17:30N 31°52' W 117°32'4 7.9
2017-Oct-15 17:00N 31°52' W 117°36'4 8.6
2017-Oct-15 16:30N 31°51' W 117°41'714.0
2017-Oct-15 16:00N 31°50' W 117°49'713.5
2017-Oct-15 15:30N 31°47' W 117°56'4 8.7
2017-Oct-15 15:00N 31°45' W 118°01'5 5.0
2017-Oct-15 14:00N 31°43' W 118°06'4 7.8
2017-Oct-15 13:30N 31°40' W 118°08'4 8.1
2017-Oct-15 13:00N 31°36' W 118°10'4 7.6
2017-Oct-15 12:30N 31°32' W 118°10'4 7.1
2017-Oct-15 12:00N 31°31' W 118°06'4 7.3
2017-Oct-15 11:30N 31°31' W 118°02'4 7.5
2017-Oct-15 11:00N 31°31' W 117°57'4 7.4
2017-Oct-15 10:30N 31°31' W 117°53'3 6.7
2017-Oct-15 10:00N 31°32' W 117°50'3 7.0
2017-Oct-15 09:30N 31°36' W 117°50'4 7.5
2017-Oct-15 09:00N 31°38' W 117°53'4 7.0
2017-Oct-15 08:30N 31°42' W 117°54'4 7.7
2017-Oct-15 08:00N 31°44' W 117°51'4 8.4
2017-Oct-15 07:30N 31°45' W 117°46'5 9.2
2017-Oct-15 07:00N 31°46' W 117°41'5 9.4
2017-Oct-15 06:30N 31°46' W 117°35'5 9.3
2017-Oct-15 06:00N 31°47' W 117°30'5 9.3
2017-Oct-15 05:30N 31°47' W 117°24'5 9.7
2017-Oct-15 05:00N 31°48' W 117°19'5 9.8
2017-Oct-15 04:30N 31°48' W 117°13'510.0
2017-Oct-15 04:00N 31°49' W 117°07'510.0
2017-Oct-15 03:30N 31°49' W 117°01'5 9.8
2017-Oct-15 03:00N 31°50' W 116°55'5 9.7
2017-Oct-15 02:30N 31°50' W 116°50'5 9.7
2017-Oct-15 02:00N 31°50' W 116°44'4 0.4
2017-Oct-14 13:40N 31°50' W 116°39'9 8.7
2017-Oct-14 12:39N 31°54' W 116°48'513.0
2017-Oct-14 12:18N 31°54' W 116°54'413.2
2017-Oct-14 12:01N 31°56' W 116°58'713.0
2017-Oct-14 11:27N 31°59' W 117°06'612.6
2017-Oct-14 11:00N 32°02' W 117°11'612.6
2017-Oct-14 10:31N 32°06' W 117°17'612.6
2017-Oct-14 10:00N 32°10' W 117°23'612.5
2017-Oct-14 09:30N 32°14' W 117°28'612.6
2017-Oct-14 09:01N 32°19' W 117°33'612.2
2017-Oct-14 08:30N 32°24' W 117°36'611.9
2017-Oct-14 08:01N 32°30' W 117°39'612.1
2017-Oct-14 07:31N 32°35' W 117°42'612.3
2017-Oct-14 07:00N 32°41' W 117°45'612.2
2017-Oct-14 06:31N 32°46' W 117°47'612.4
2017-Oct-14 06:01N 32°52' W 117°51'612.6
2017-Oct-14 05:31N 32°57' W 117°54'612.6
2017-Oct-14 05:00N 33°03' W 117°57'612.3
2017-Oct-14 04:30N 33°09' W 118°00'612.2
2017-Oct-14 04:01N 33°14' W 118°04'612.1
2017-Oct-14 03:30N 33°20' W 118°07'612.0
2017-Oct-14 03:00N 33°26' W 118°09'612.1
2017-Oct-14 02:31N 33°31' W 118°12'611.7
2017-Oct-14 02:01N 33°37' W 118°13'510.8
2017-Oct-14 01:31N 33°42' W 118°11'3 5.7
2017-Oct-14 01:01N 33°45' W 118°11'0 0.4
2017-Oct-14 00:30N 33°45' W 118°11'0 0.3
2017-Oct-13 23:59N 33°45' W 118°11'0 0.0
2017-Oct-13 23:29N 33°45' W 118°11'0 0.0
2017-Oct-13 22:59N 33°45' W 118°11'0 0.0
2017-Oct-13 22:26N 33°45' W 118°11'0 0.0
2017-Oct-13 21:55N 33°45' W 118°11'0 0.0
2017-Oct-13 21:28N 33°45' W 118°11'0 0.0
2017-Oct-13 20:55N 33°45' W 118°11'0 0.0
2017-Oct-13 20:25N 33°45' W 118°11'0 0.0
2017-Oct-13 19:55N 33°45' W 118°11'0 0.0
2017-Oct-13 19:27N 33°45' W 118°11'0 0.0
2017-Oct-13 18:54N 33°45' W 118°11'0 0.0
2017-Oct-13 18:30N 33°45' W 118°11'0 0.0
2017-Oct-13 18:00N 33°45' W 118°11'0 0.0
2017-Oct-13 17:29N 33°45' W 118°11'0 0.0
2017-Oct-13 16:58N 33°45' W 118°11'0 0.0
2017-Oct-13 16:28N 33°45' W 118°11'0 0.0
2017-Oct-13 15:58N 33°45' W 118°11'0 0.0
2017-Oct-13 15:28N 33°45' W 118°11'0 0.0
2017-Oct-13 14:58N 33°45' W 118°11'0 0.0
2017-Oct-13 14:30N 33°45' W 118°11'0 0.0
2017-Oct-13 14:00N 33°45' W 118°11'0 0.0
2017-Oct-13 13:30N 33°45' W 118°11'0 0.0
2017-Oct-13 13:00N 33°45' W 118°11'0 0.7
2017-Oct-13 12:30N 33°45' W 118°11'2 4.1
2017-Oct-13 12:00N 33°43' W 118°11'4 8.7
2017-Oct-13 11:30N 33°38' W 118°10'4 7.1
2017-Oct-13 11:00N 33°35' W 118°09'4 7.3
2017-Oct-13 10:30N 33°31' W 118°08'4 7.8
2017-Oct-13 10:00N 33°28' W 118°06'4 8.0
2017-Oct-13 09:30N 33°24' W 118°05'4 8.0
2017-Oct-13 09:00N 33°20' W 118°03'4 7.8
2017-Oct-13 08:30N 33°17' W 118°01'5 9.1
2017-Oct-13 08:00N 33°12' W 117°60'5 9.9
2017-Oct-13 07:30N 33°08' W 117°58'5 9.7
2017-Oct-13 07:00N 33°03' W 117°56'5 9.6
2017-Oct-13 06:30N 32°59' W 117°54'5 9.3
2017-Oct-13 06:00N 32°54' W 117°52'5 9.4
2017-Oct-13 05:30N 32°50' W 117°50'5 9.4
2017-Oct-13 05:00N 32°45' W 117°48'5 9.4
2017-Oct-13 04:30N 32°41' W 117°46'4 8.1
2017-Oct-13 04:00N 32°37' W 117°44'5 9.3
2017-Oct-13 03:30N 32°33' W 117°43'5 9.3
2017-Oct-13 03:00N 32°28' W 117°41'5 9.4
2017-Oct-13 02:30N 32°24' W 117°39'5 9.2
2017-Oct-13 02:00N 32°20' W 117°37'5 9.0
2017-Oct-13 01:30N 32°16' W 117°34'5 9.0
2017-Oct-13 01:00N 32°12' W 117°31'5 9.1
2017-Oct-13 00:30N 32°09' W 117°27'5 9.2
2017-Oct-13 00:00N 32°06' W 117°23'4 8.7
2017-Oct-12 23:30N 32°02' W 117°20'13 4.6
2017-Oct-12 20:48N 31°52' W 117°28'3 8.9
2017-Oct-12 20:30N 31°52' W 117°31'4 8.7
2017-Oct-12 20:00N 31°52' W 117°36'5 8.8
2017-Oct-12 19:25N 31°52' W 117°42'3 8.4
2017-Oct-12 19:00N 31°52' W 117°46'4 8.1
2017-Oct-12 18:28N 31°51' W 117°51'5 9.1
2017-Oct-12 17:54N 31°51' W 117°57'4 9.8
2017-Oct-12 17:30N 31°51' W 118°02'5 9.8
2017-Oct-12 17:00N 31°51' W 118°08'4 8.5
2017-Oct-12 16:30N 31°48' W 118°10'4 8.7
2017-Oct-12 16:00N 31°43' W 118°10'712.2
2017-Oct-12 15:26N 31°40' W 118°03'6 7.3
2017-Oct-12 14:40N 31°39' W 117°56'1 6.6
2017-Oct-12 14:30N 31°38' W 117°56'3 6.5
2017-Oct-12 14:01N 31°36' W 117°59'4 7.8
2017-Oct-12 13:29N 31°37' W 118°03'4 7.9
2017-Oct-12 13:00N 31°37' W 118°08'4 7.3
2017-Oct-12 12:31N 31°34' W 118°11'4 7.1
2017-Oct-12 12:01N 31°31' W 118°10'3 6.9
2017-Oct-12 11:31N 31°31' W 118°06'5 7.0
2017-Oct-12 10:48N 31°31' W 117°60'3 6.9
2017-Oct-12 10:21N 31°31' W 117°56'3 7.0
2017-Oct-12 09:59N 31°31' W 117°53'4 6.3
2017-Oct-12 09:20N 31°33' W 117°49'2 7.0
2017-Oct-12 09:00N 31°35' W 117°50'4 7.4
2017-Oct-12 08:26N 31°39' W 117°53'3 7.4
2017-Oct-12 08:00N 31°41' W 117°55'4 7.3
2017-Oct-12 07:25N 31°45' W 117°52'  
Track history (hours):
 
Tides and Currents Weather Stations Pressure Air Temp Water Temp Dewpoint Dewpoint Depression Visibility Wind Speed Wind Dir Waves Ship Positions

Inspiration

Operator: Carnival Cruise Lines

Last reported at 2017-Oct-22 07:22 UTC. Time now 2017-Oct-22 07:59 UTC.
Position N 31°45' W 117°50'.

Type: Ship. MMSI: 309484000.

Date/timePositionNaut miles runAvg speedWind from/ knotsBaromVisibWave heightAir tempDewpointWater temp
2017-Oct-22 07:22N 31°45' W 117°50'410.0
2017-Oct-22 06:59N 31°46' W 117°46'510.1
2017-Oct-22 06:30N 31°46' W 117°40'1410.5
2017-Oct-22 05:12N 31°49' W 117°24'1711.0
2017-Oct-22 03:41N 31°51' W 117°05'42 2.2
2017-Oct-21 08:50N 32°21' W 117°39'411.1
2017-Oct-21 08:30N 32°25' W 117°40'612.2
2017-Oct-21 08:00N 32°30' W 117°43'611.7
2017-Oct-21 07:31N 32°36' W 117°45'611.1
2017-Oct-21 07:00N 32°41' W 117°48'611.4
2017-Oct-21 06:30N 32°46' W 117°50'1211.6
2017-Oct-21 05:30N 32°57' W 117°56'3511.8
2017-Oct-21 02:35N 33°29' W 118°10'111.7
2017-Oct-21 02:30N 33°30' W 118°11'611.6
2017-Oct-21 02:00N 33°35' W 118°13'4 0.3
2017-Oct-20 11:35N 33°39' W 118°11'1 7.2
2017-Oct-20 11:30N 33°39' W 118°10'21 7.6
2017-Oct-20 08:45N 33°19' W 118°03'2 8.5
2017-Oct-20 08:30N 33°17' W 118°02'4 8.5
2017-Oct-20 08:00N 33°13' W 117°60'4 8.0
2017-Oct-20 07:30N 33°09' W 117°58'4 8.1
2017-Oct-20 07:00N 33°05' W 117°57'4 8.8
2017-Oct-20 06:30N 33°01' W 117°55'4 8.8
2017-Oct-20 06:00N 32°57' W 117°53'4 8.8
2017-Oct-20 05:30N 32°53' W 117°51'4 8.6
2017-Oct-20 05:00N 32°49' W 117°49'4 8.2
2017-Oct-20 04:30N 32°45' W 117°48'4 8.5
2017-Oct-20 04:00N 32°41' W 117°46'4 8.5
2017-Oct-20 03:30N 32°37' W 117°44'4 8.5
2017-Oct-20 03:00N 32°33' W 117°43'4 8.2
2017-Oct-20 02:30N 32°29' W 117°41'4 8.1
2017-Oct-20 02:00N 32°25' W 117°40'4 7.9
2017-Oct-20 01:30N 32°22' W 117°38'5 7.7
2017-Oct-20 00:52N 32°17' W 117°36'3 8.0
2017-Oct-20 00:30N 32°15' W 117°33'11 8.9
2017-Oct-19 23:16N 32°07' W 117°25'2 8.9
2017-Oct-19 23:00N 32°05' W 117°23'5 8.9
2017-Oct-19 22:27N 32°01' W 117°19'6 9.2
2017-Oct-19 21:51N 31°56' W 117°17'3 8.2
2017-Oct-19 21:30N 31°53' W 117°17'4 8.0
2017-Oct-19 21:00N 31°52' W 117°21'6 9.2
2017-Oct-19 20:24N 31°52' W 117°28'5 9.4
2017-Oct-19 19:51N 31°52' W 117°34'5 9.4
2017-Oct-19 19:18N 31°52' W 117°40'3 9.3
2017-Oct-19 19:00N 31°52' W 117°43'5 9.3
2017-Oct-19 18:30N 31°52' W 117°49'5 9.1
2017-Oct-19 17:59N 31°52' W 117°54'4 9.5
2017-Oct-19 17:30N 31°51' W 117°60'612.0
2017-Oct-19 17:00N 31°47' W 118°05'713.6
2017-Oct-19 16:30N 31°41' W 118°07'611.9
2017-Oct-19 16:00N 31°35' W 118°08'612.2
2017-Oct-19 15:30N 31°34' W 118°01'4 7.5
2017-Oct-19 14:59N 31°34' W 117°56'4 7.3
2017-Oct-19 14:30N 31°34' W 117°52'2 3.4
2017-Oct-19 14:00N 31°33' W 117°51'4 8.6
2017-Oct-19 13:30N 31°33' W 117°56'4 8.3
2017-Oct-19 13:00N 31°33' W 118°01'4 8.3
2017-Oct-19 12:31N 31°33' W 118°06'2 3.7
2017-Oct-19 12:00N 31°32' W 118°07'4 7.3
2017-Oct-19 11:30N 31°31' W 118°02'4 7.4
2017-Oct-19 11:00N 31°31' W 117°58'4 7.3
2017-Oct-19 10:30N 31°31' W 117°54'3 6.9
2017-Oct-19 10:00N 31°32' W 117°50'3 6.9
2017-Oct-19 09:30N 31°35' W 117°50'4 7.4
2017-Oct-19 09:00N 31°38' W 117°53'4 7.5
2017-Oct-19 08:30N 31°41' W 117°55'4 7.6
2017-Oct-19 08:00N 31°45' W 117°53'4 9.0
2017-Oct-19 07:30N 31°45' W 117°48'4 8.8
2017-Oct-19 07:00N 31°46' W 117°43'510.0
2017-Oct-19 06:30N 31°46' W 117°37'510.1
2017-Oct-19 06:00N 31°47' W 117°31'510.5
2017-Oct-19 05:30N 31°47' W 117°25'510.1
2017-Oct-19 05:00N 31°48' W 117°19'510.4
2017-Oct-19 04:29N 31°48' W 117°13'5 9.7
2017-Oct-19 03:58N 31°49' W 117°07'5 9.6
2017-Oct-19 03:30N 31°49' W 117°02'5 9.6
2017-Oct-19 02:59N 31°50' W 116°56'5 9.8
2017-Oct-19 02:30N 31°50' W 116°50'5 9.6
2017-Oct-19 01:59N 31°50' W 116°44'4 9.3
2017-Oct-19 01:30N 31°50' W 116°39'0 0.0
2017-Oct-18 13:50N 31°50' W 116°39'3 7.8
2017-Oct-18 13:30N 31°50' W 116°42'3 6.8
2017-Oct-18 13:00N 31°51' W 116°45'4 8.3
2017-Oct-18 12:30N 31°54' W 116°49'4 8.6
2017-Oct-18 11:59N 31°55' W 116°54'4 8.5
2017-Oct-18 11:30N 31°57' W 116°59'4 8.5
2017-Oct-18 11:00N 31°59' W 117°03'4 8.6
2017-Oct-18 10:30N 32°00' W 117°08'4 8.4
2017-Oct-18 10:00N 32°02' W 117°12'4 8.0
2017-Oct-18 09:30N 32°03' W 117°17'4 7.3
2017-Oct-18 09:00N 32°05' W 117°21'4 8.2
2017-Oct-18 08:30N 32°06' W 117°25'5 9.8
2017-Oct-18 08:00N 32°09' W 117°30'4 8.8
2017-Oct-18 07:30N 32°12' W 117°34'4 8.7
2017-Oct-18 07:00N 32°16' W 117°36'4 8.4
2017-Oct-18 06:30N 32°19' W 117°39'5 9.6
2017-Oct-18 06:00N 32°24' W 117°41'5 9.9
2017-Oct-18 05:30N 32°28' W 117°44'510.0
2017-Oct-18 05:00N 32°32' W 117°47'510.0
2017-Oct-18 04:30N 32°37' W 117°50'510.1
2017-Oct-18 04:00N 32°41' W 117°52'510.4
2017-Oct-18 03:30N 32°46' W 117°55'510.6
2017-Oct-18 03:00N 32°51' W 117°58'510.7
2017-Oct-18 02:30N 32°55' W 118°01'510.9
2017-Oct-18 02:00N 33°00' W 118°04'611.0
2017-Oct-18 01:30N 33°05' W 118°07'510.8
2017-Oct-18 01:00N 33°10' W 118°10'510.9
2017-Oct-18 00:30N 33°15' W 118°13'510.7
2017-Oct-18 00:00N 33°19' W 118°16'3 5.3
2017-Oct-17 23:28N 33°21' W 118°19'0 0.0
2017-Oct-17 22:58N 33°21' W 118°19'0 0.0
2017-Oct-17 22:30N 33°21' W 118°19'0 0.0
2017-Oct-17 22:00N 33°21' W 118°19'0 0.0
2017-Oct-17 21:27N 33°21' W 118°19'0 0.1
2017-Oct-17 21:00N 33°21' W 118°19'0 0.1
2017-Oct-17 20:30N 33°21' W 118°19'0 0.0
2017-Oct-17 19:56N 33°21' W 118°19'0 0.0
2017-Oct-17 19:29N 33°21' W 118°19'0 0.0
2017-Oct-17 18:56N 33°21' W 118°19'0 0.0
2017-Oct-17 18:26N 33°21' W 118°19'0 0.0
2017-Oct-17 17:49N 33°21' W 118°19'0 0.0
2017-Oct-17 17:28N 33°21' W 118°19'0 0.0
2017-Oct-17 16:55N 33°21' W 118°19'0 0.0
2017-Oct-17 16:25N 33°21' W 118°19'0 0.0
2017-Oct-17 15:55N 33°21' W 118°19'0 0.0
2017-Oct-17 15:30N 33°21' W 118°19'0 0.0
2017-Oct-17 15:00N 33°21' W 118°19'0 0.0
2017-Oct-17 14:30N 33°21' W 118°19'0 0.5
2017-Oct-17 14:00N 33°21' W 118°19'3 6.1
2017-Oct-17 13:31N 33°18' W 118°17'4 7.6
2017-Oct-17 13:00N 33°15' W 118°16'4 8.5
2017-Oct-17 12:30N 33°10' W 118°16'4 8.6
2017-Oct-17 12:00N 33°06' W 118°15'4 8.3
2017-Oct-17 11:30N 33°03' W 118°12'4 7.7
2017-Oct-17 11:00N 32°60' W 118°09'4 7.6
2017-Oct-17 10:30N 32°56' W 118°07'4 7.2
2017-Oct-17 10:00N 32°54' W 118°04'4 7.3
2017-Oct-17 09:30N 32°51' W 118°02'4 7.4
2017-Oct-17 09:00N 32°48' W 117°59'3 6.8
2017-Oct-17 08:30N 32°48' W 117°55'3 6.7
2017-Oct-17 08:00N 32°51' W 117°55'4 7.6
2017-Oct-17 07:30N 32°55' W 117°56'4 7.5
2017-Oct-17 07:00N 32°58' W 117°58'3 6.9
2017-Oct-17 06:30N 33°02' W 117°59'4 7.1
2017-Oct-17 06:00N 33°05' W 118°00'4 7.2
2017-Oct-17 05:30N 33°08' W 118°02'4 7.1
2017-Oct-17 05:00N 33°12' W 118°03'4 8.9
2017-Oct-17 04:30N 33°16' W 118°05'510.6
2017-Oct-17 04:00N 33°21' W 118°07'510.8
2017-Oct-17 03:30N 33°26' W 118°09'510.8
2017-Oct-17 03:00N 33°31' W 118°11'510.7
2017-Oct-17 02:30N 33°36' W 118°13'510.0
2017-Oct-17 02:00N 33°41' W 118°12'4 0.3
2017-Oct-16 12:31N 33°45' W 118°11'0 1.1
2017-Oct-16 12:30N 33°45' W 118°11'6 5.7
2017-Oct-16 11:28N 33°39' W 118°10'4 7.6
2017-Oct-16 11:00N 33°36' W 118°10'4 7.4
2017-Oct-16 10:27N 33°32' W 118°08'4 7.4
2017-Oct-16 09:52N 33°28' W 118°06'3 7.5
2017-Oct-16 09:30N 33°25' W 118°05'4 7.2
2017-Oct-16 09:00N 33°22' W 118°04'4 7.6
2017-Oct-16 08:27N 33°18' W 118°02'3 7.4
2017-Oct-16 08:00N 33°15' W 118°01'4 7.1
2017-Oct-16 07:30N 33°11' W 117°59'4 7.5
2017-Oct-16 07:00N 33°08' W 117°58'4 7.5
2017-Oct-16 06:30N 33°04' W 117°56'4 7.7
2017-Oct-16 06:00N 33°01' W 117°55'4 7.4
2017-Oct-16 05:30N 32°57' W 117°53'4 7.4
2017-Oct-16 05:00N 32°54' W 117°51'4 7.4
2017-Oct-16 04:30N 32°50' W 117°50'4 7.5
2017-Oct-16 04:00N 32°47' W 117°49'4 7.6
2017-Oct-16 03:30N 32°43' W 117°47'4 7.7
2017-Oct-16 03:00N 32°40' W 117°45'4 7.7
2017-Oct-16 02:30N 32°36' W 117°43'4 7.8
2017-Oct-16 02:00N 32°33' W 117°41'4 7.8
2017-Oct-16 01:30N 32°29' W 117°40'4 7.6
2017-Oct-16 01:00N 32°25' W 117°38'4 7.6
2017-Oct-16 00:30N 32°22' W 117°38'4 7.5
2017-Oct-16 00:00N 32°18' W 117°37'4 7.3
2017-Oct-15 23:30N 32°15' W 117°34'4 7.2
2017-Oct-15 23:00N 32°13' W 117°31'16 7.3
2017-Oct-15 20:52N 32°01' W 117°18'3 7.2
2017-Oct-15 20:30N 31°59' W 117°17'4 7.0
2017-Oct-15 19:55N 31°55' W 117°15'3 6.8
2017-Oct-15 19:30N 31°52' W 117°15'3 6.9
2017-Oct-15 19:00N 31°52' W 117°19'4 7.1
2017-Oct-15 18:27N 31°52' W 117°24'3 7.3
2017-Oct-15 18:00N 31°52' W 117°27'4 7.1
2017-Oct-15 17:30N 31°52' W 117°32'4 7.9
2017-Oct-15 17:00N 31°52' W 117°36'4 8.6
2017-Oct-15 16:30N 31°51' W 117°41'714.0
2017-Oct-15 16:00N 31°50' W 117°49'713.5
2017-Oct-15 15:30N 31°47' W 117°56'4 8.7
2017-Oct-15 15:00N 31°45' W 118°01'5 5.0
2017-Oct-15 14:00N 31°43' W 118°06'4 7.8
2017-Oct-15 13:30N 31°40' W 118°08'4 8.1
2017-Oct-15 13:00N 31°36' W 118°10'4 7.6
2017-Oct-15 12:30N 31°32' W 118°10'4 7.1
2017-Oct-15 12:00N 31°31' W 118°06'4 7.3
2017-Oct-15 11:30N 31°31' W 118°02'4 7.5
2017-Oct-15 11:00N 31°31' W 117°57'4 7.4
2017-Oct-15 10:30N 31°31' W 117°53'3 6.7
2017-Oct-15 10:00N 31°32' W 117°50'3 7.0
2017-Oct-15 09:30N 31°36' W 117°50'4 7.5
2017-Oct-15 09:00N 31°38' W 117°53'4 7.0
2017-Oct-15 08:30N 31°42' W 117°54'4 7.7
2017-Oct-15 08:00N 31°44' W 117°51'4 8.4
2017-Oct-15 07:30N 31°45' W 117°46'5 9.2
2017-Oct-15 07:00N 31°46' W 117°41'5 9.4
2017-Oct-15 06:30N 31°46' W 117°35'5 9.3
2017-Oct-15 06:00N 31°47' W 117°30'5 9.3
2017-Oct-15 05:30N 31°47' W 117°24'5 9.7
2017-Oct-15 05:00N 31°48' W 117°19'5 9.8
2017-Oct-15 04:30N 31°48' W 117°13'510.0
2017-Oct-15 04:00N 31°49' W 117°07'510.0
2017-Oct-15 03:30N 31°49' W 117°01'5 9.8
2017-Oct-15 03:00N 31°50' W 116°55'5 9.7
2017-Oct-15 02:30N 31°50' W 116°50'5 9.7
2017-Oct-15 02:00N 31°50' W 116°44'4 0.4
2017-Oct-14 13:40N 31°50' W 116°39'9 8.7
2017-Oct-14 12:39N 31°54' W 116°48'513.0
2017-Oct-14 12:18N 31°54' W 116°54'413.2
2017-Oct-14 12:01N 31°56' W 116°58'713.0
2017-Oct-14 11:27N 31°59' W 117°06'612.6
2017-Oct-14 11:00N 32°02' W 117°11'612.6
2017-Oct-14 10:31N 32°06' W 117°17'612.6
2017-Oct-14 10:00N 32°10' W 117°23'612.5
2017-Oct-14 09:30N 32°14' W 117°28'612.6
2017-Oct-14 09:01N 32°19' W 117°33'612.2
2017-Oct-14 08:30N 32°24' W 117°36'611.9
2017-Oct-14 08:01N 32°30' W 117°39'612.1
2017-Oct-14 07:31N 32°35' W 117°42'612.3
2017-Oct-14 07:00N 32°41' W 117°45'612.2
2017-Oct-14 06:31N 32°46' W 117°47'612.4
2017-Oct-14 06:01N 32°52' W 117°51'612.6
2017-Oct-14 05:31N 32°57' W 117°54'612.6
2017-Oct-14 05:00N 33°03' W 117°57'612.3
2017-Oct-14 04:30N 33°09' W 118°00'612.2
2017-Oct-14 04:01N 33°14' W 118°04'612.1
2017-Oct-14 03:30N 33°20' W 118°07'612.0
2017-Oct-14 03:00N 33°26' W 118°09'612.1
2017-Oct-14 02:31N 33°31' W 118°12'611.7
2017-Oct-14 02:01N 33°37' W 118°13'510.8
2017-Oct-14 01:31N 33°42' W 118°11'3 5.7
2017-Oct-14 01:01N 33°45' W 118°11'0 0.4
2017-Oct-14 00:30N 33°45' W 118°11'0 0.3
2017-Oct-13 23:59N 33°45' W 118°11'0 0.0
2017-Oct-13 23:29N 33°45' W 118°11'0 0.0
2017-Oct-13 22:59N 33°45' W 118°11'0 0.0
2017-Oct-13 22:26N 33°45' W 118°11'0 0.0
2017-Oct-13 21:55N 33°45' W 118°11'0 0.0
2017-Oct-13 21:28N 33°45' W 118°11'0 0.0
2017-Oct-13 20:55N 33°45' W 118°11'0 0.0
2017-Oct-13 20:25N 33°45' W 118°11'0 0.0
2017-Oct-13 19:55N 33°45' W 118°11'0 0.0
2017-Oct-13 19:27N 33°45' W 118°11'0 0.0
2017-Oct-13 18:54N 33°45' W 118°11'0 0.0
2017-Oct-13 18:30N 33°45' W 118°11'0 0.0
2017-Oct-13 18:00N 33°45' W 118°11'0 0.0
2017-Oct-13 17:29N 33°45' W 118°11'0 0.0
2017-Oct-13 16:58N 33°45' W 118°11'0 0.0
2017-Oct-13 16:28N 33°45' W 118°11'0 0.0
2017-Oct-13 15:58N 33°45' W 118°11'0 0.0
2017-Oct-13 15:28N 33°45' W 118°11'0 0.0
2017-Oct-13 14:58N 33°45' W 118°11'0 0.0
2017-Oct-13 14:30N 33°45' W 118°11'0 0.0
2017-Oct-13 14:00N 33°45' W 118°11'0 0.0
2017-Oct-13 13:30N 33°45' W 118°11'0 0.0
2017-Oct-13 13:00N 33°45' W 118°11'0 0.7
2017-Oct-13 12:30N 33°45' W 118°11'2 4.1
2017-Oct-13 12:00N 33°43' W 118°11'4 8.7
2017-Oct-13 11:30N 33°38' W 118°10'4 7.1
2017-Oct-13 11:00N 33°35' W 118°09'4 7.3
2017-Oct-13 10:30N 33°31' W 118°08'4 7.8
2017-Oct-13 10:00N 33°28' W 118°06'4 8.0
2017-Oct-13 09:30N 33°24' W 118°05'4 8.0
2017-Oct-13 09:00N 33°20' W 118°03'4 7.8
2017-Oct-13 08:30N 33°17' W 118°01'5 9.1
2017-Oct-13 08:00N 33°12' W 117°60'5 9.9
2017-Oct-13 07:30N 33°08' W 117°58'5 9.7
2017-Oct-13 07:00N 33°03' W 117°56'5 9.6
2017-Oct-13 06:30N 32°59' W 117°54'5 9.3
2017-Oct-13 06:00N 32°54' W 117°52'5 9.4
2017-Oct-13 05:30N 32°50' W 117°50'5 9.4
2017-Oct-13 05:00N 32°45' W 117°48'5 9.4
2017-Oct-13 04:30N 32°41' W 117°46'4 8.1
2017-Oct-13 04:00N 32°37' W 117°44'5 9.3
2017-Oct-13 03:30N 32°33' W 117°43'5 9.3
2017-Oct-13 03:00N 32°28' W 117°41'5 9.4
2017-Oct-13 02:30N 32°24' W 117°39'5 9.2
2017-Oct-13 02:00N 32°20' W 117°37'5 9.0
2017-Oct-13 01:30N 32°16' W 117°34'5 9.0
2017-Oct-13 01:00N 32°12' W 117°31'5 9.1
2017-Oct-13 00:30N 32°09' W 117°27'5 9.2
2017-Oct-13 00:00N 32°06' W 117°23'4 8.7
2017-Oct-12 23:30N 32°02' W 117°20'13 4.6
2017-Oct-12 20:48N 31°52' W 117°28'3 8.9
2017-Oct-12 20:30N 31°52' W 117°31'4 8.7
2017-Oct-12 20:00N 31°52' W 117°36'5 8.8
2017-Oct-12 19:25N 31°52' W 117°42'3 8.4
2017-Oct-12 19:00N 31°52' W 117°46'4 8.1
2017-Oct-12 18:28N 31°51' W 117°51'5 9.1
2017-Oct-12 17:54N 31°51' W 117°57'4 9.8
2017-Oct-12 17:30N 31°51' W 118°02'5 9.8
2017-Oct-12 17:00N 31°51' W 118°08'4 8.5
2017-Oct-12 16:30N 31°48' W 118°10'4 8.7
2017-Oct-12 16:00N 31°43' W 118°10'712.2
2017-Oct-12 15:26N 31°40' W 118°03'6 7.3
2017-Oct-12 14:40N 31°39' W 117°56'1 6.6
2017-Oct-12 14:30N 31°38' W 117°56'3 6.5
2017-Oct-12 14:01N 31°36' W 117°59'4 7.8
2017-Oct-12 13:29N 31°37' W 118°03'4 7.9
2017-Oct-12 13:00N 31°37' W 118°08'4 7.3
2017-Oct-12 12:31N 31°34' W 118°11'4 7.1
2017-Oct-12 12:01N 31°31' W 118°10'3 6.9
2017-Oct-12 11:31N 31°31' W 118°06'5 7.0
2017-Oct-12 10:48N 31°31' W 117°60'3 6.9
2017-Oct-12 10:21N 31°31' W 117°56'3 7.0
2017-Oct-12 09:59N 31°31' W 117°53'4 6.3
2017-Oct-12 09:20N 31°33' W 117°49'2 7.0
2017-Oct-12 09:00N 31°35' W 117°50'4 7.4
2017-Oct-12 08:26N 31°39' W 117°53'3 7.4
2017-Oct-12 08:00N 31°41' W 117°55'4 7.3
2017-Oct-12 07:25N 31°45' W 117°52'  

Dump ship's entire track history